createdAt,value
2016-08-21T00:00:18.945Z,2.20
2016-08-21T00:01:19.486Z,1.90
2016-08-21T00:02:20.025Z,2.30
2016-08-21T00:03:20.562Z,2.50
2016-08-21T00:04:21.130Z,1.10
2016-08-21T00:05:21.644Z,2.10
2016-08-21T00:06:22.205Z,1.20
2016-08-21T00:07:22.736Z,0.70
2016-08-21T00:08:23.264Z,1.00
2016-08-21T00:09:23.803Z,0.70
2016-08-21T00:10:24.343Z,1.40
2016-08-21T00:11:24.881Z,1.40
2016-08-21T00:12:25.414Z,0.80
2016-08-21T00:13:25.954Z,0.80
2016-08-21T00:14:26.494Z,0.70
2016-08-21T00:15:27.164Z,0.80
2016-08-21T00:16:27.527Z,0.50
2016-08-21T00:17:28.045Z,0.60
2016-08-21T00:18:28.558Z,0.40
2016-08-21T00:19:29.073Z,0.30
2016-08-21T00:20:29.583Z,0.30
2016-08-21T00:21:30.097Z,0.40
2016-08-21T00:22:30.614Z,0.30
2016-08-21T00:23:31.138Z,0.60
2016-08-21T00:24:31.802Z,0.30
2016-08-21T00:25:32.212Z,0.30
2016-08-21T00:26:32.690Z,0.40
2016-08-21T00:27:33.207Z,0.70
2016-08-21T00:28:33.740Z,0.20
2016-08-21T00:29:34.240Z,0.40
2016-08-21T00:30:34.751Z,0.70
2016-08-21T00:31:35.264Z,0.70
2016-08-21T00:32:35.781Z,0.10
2016-08-21T00:33:36.294Z,0.10
2016-08-21T00:34:36.809Z,0.00
2016-08-21T00:35:37.325Z,0.00
2016-08-21T00:36:37.987Z,0.00
2016-08-21T00:37:38.374Z,0.00
2016-08-21T00:38:38.863Z,0.00
2016-08-21T00:39:39.378Z,0.00
2016-08-21T00:40:39.893Z,0.00
2016-08-21T00:41:40.405Z,0.00
2016-08-21T00:42:40.917Z,0.00
2016-08-21T00:43:41.434Z,0.00
2016-08-21T00:44:41.947Z,0.00
2016-08-21T00:45:42.475Z,0.00
2016-08-21T00:46:42.986Z,0.00
2016-08-21T00:47:43.493Z,0.00
2016-08-21T00:48:44.004Z,0.00
2016-08-21T00:49:44.516Z,0.10
2016-08-21T00:50:45.032Z,0.10
2016-08-21T00:51:45.548Z,0.20
2016-08-21T00:52:46.059Z,0.10
2016-08-21T00:53:46.577Z,0.00
2016-08-21T00:54:47.087Z,0.00
2016-08-21T00:55:47.603Z,0.00
2016-08-21T00:56:48.115Z,0.00
2016-08-21T00:57:48.632Z,0.00
2016-08-21T00:58:49.151Z,0.00
2016-08-21T00:59:49.671Z,0.10
2016-08-21T01:00:50.173Z,0.10
2016-08-21T01:01:50.695Z,0.10
2016-08-21T01:02:51.208Z,0.10
2016-08-21T01:03:51.866Z,0.00
2016-08-21T01:04:52.235Z,0.00
2016-08-21T01:05:52.742Z,1.10
2016-08-21T01:06:53.401Z,0.90
2016-08-21T01:07:53.787Z,1.10
2016-08-21T01:08:54.279Z,1.80
2016-08-21T01:09:54.791Z,2.00
2016-08-21T01:10:55.303Z,1.20
2016-08-21T01:11:55.816Z,1.50
2016-08-21T01:12:56.324Z,2.00
2016-08-21T01:13:56.840Z,2.00
2016-08-21T01:14:57.356Z,1.50
2016-08-21T01:15:58.016Z,1.80
2016-08-21T01:16:58.377Z,2.60
2016-08-21T01:17:58.896Z,2.80
2016-08-21T01:18:59.408Z,2.40
2016-08-21T01:19:59.921Z,2.00
2016-08-21T01:21:00.430Z,1.40
2016-08-21T01:22:00.946Z,1.30
2016-08-21T01:23:01.456Z,1.00
2016-08-21T01:24:01.972Z,0.50
2016-08-21T01:25:02.481Z,2.30
2016-08-21T01:26:03.002Z,0.90
2016-08-21T01:27:03.508Z,1.10
2016-08-21T01:28:04.016Z,2.20
2016-08-21T01:29:04.533Z,2.00
2016-08-21T01:30:05.047Z,1.80
2016-08-21T01:31:05.561Z,3.00
2016-08-21T01:32:06.078Z,3.60
2016-08-21T01:33:06.583Z,3.40
2016-08-21T01:34:07.106Z,4.40
2016-08-21T01:35:07.611Z,3.70
2016-08-21T01:36:08.135Z,2.40
2016-08-21T01:37:08.647Z,2.00
2016-08-21T01:38:09.164Z,1.20
2016-08-21T01:39:09.679Z,1.30
2016-08-21T01:40:10.191Z,1.00
2016-08-21T01:41:10.704Z,0.90
2016-08-21T01:42:11.216Z,0.90
2016-08-21T01:43:11.726Z,0.90
2016-08-21T01:44:12.241Z,0.90
2016-08-21T01:45:12.754Z,0.60
2016-08-21T01:46:13.299Z,1.50
2016-08-21T01:47:13.928Z,0.90
2016-08-21T01:48:14.292Z,0.80
2016-08-21T01:49:14.805Z,1.40
2016-08-21T01:50:15.321Z,1.20
2016-08-21T01:51:15.830Z,1.20
2016-08-21T01:52:16.345Z,1.80
2016-08-21T01:53:16.862Z,2.10
2016-08-21T01:54:17.377Z,2.10
2016-08-21T01:55:17.896Z,2.10
2016-08-21T01:56:18.424Z,2.20
2016-08-21T01:57:18.915Z,3.00
2016-08-21T01:58:19.436Z,1.60
2016-08-21T01:59:19.946Z,3.40
2016-08-21T02:00:20.460Z,1.60
2016-08-21T02:01:20.969Z,1.80
2016-08-21T02:02:21.483Z,3.30
2016-08-21T02:03:21.993Z,3.10
2016-08-21T02:04:22.505Z,2.90
2016-08-21T02:05:23.022Z,1.30
2016-08-21T02:06:23.559Z,1.30
2016-08-21T02:07:24.044Z,1.30
2016-08-21T02:08:24.558Z,1.40
2016-08-21T02:09:25.079Z,2.30
2016-08-21T02:10:25.588Z,2.00
2016-08-21T02:11:26.113Z,1.50
2016-08-21T02:12:26.620Z,1.00
2016-08-21T02:13:27.140Z,2.90
2016-08-21T02:14:27.806Z,3.10
2016-08-21T02:15:28.173Z,1.60
2016-08-21T02:16:28.707Z,1.30
2016-08-21T02:17:29.201Z,1.30
2016-08-21T02:18:29.711Z,1.20
2016-08-21T02:19:30.224Z,2.70
2016-08-21T02:20:30.738Z,2.40
2016-08-21T02:21:31.253Z,2.50
2016-08-21T02:22:31.770Z,2.40
2016-08-21T02:23:32.278Z,2.50
2016-08-21T02:24:32.798Z,1.70
2016-08-21T02:25:33.328Z,1.20
2016-08-21T02:26:33.966Z,1.20
2016-08-21T02:27:34.336Z,1.40
2016-08-21T02:28:34.849Z,1.70
2016-08-21T02:29:35.375Z,1.60
2016-08-21T02:30:35.871Z,1.00
2016-08-21T02:31:36.387Z,0.80
2016-08-21T02:32:36.905Z,1.80
2016-08-21T02:33:37.415Z,2.30
2016-08-21T02:34:37.934Z,2.30
2016-08-21T02:35:38.592Z,1.30
2016-08-21T02:36:38.960Z,1.40
2016-08-21T02:37:39.476Z,1.00
2016-08-21T02:38:39.990Z,1.30
2016-08-21T02:39:40.503Z,1.30
2016-08-21T02:40:41.035Z,1.40
2016-08-21T02:41:41.537Z,1.00
2016-08-21T02:42:42.201Z,1.10
2016-08-21T02:43:42.563Z,1.30
2016-08-21T02:44:43.078Z,1.40
2016-08-21T02:45:43.622Z,1.90
2016-08-21T02:46:44.108Z,1.80
2016-08-21T02:47:44.619Z,0.70
2016-08-21T02:48:45.138Z,1.10
2016-08-21T02:49:45.653Z,1.10
2016-08-21T02:50:46.171Z,1.80
2016-08-21T02:51:46.691Z,2.30
2016-08-21T02:52:47.205Z,2.10
2016-08-21T02:53:47.716Z,1.90
2016-08-21T02:54:48.232Z,1.30
2016-08-21T02:55:48.890Z,0.90
2016-08-21T02:56:49.259Z,1.40
2016-08-21T02:57:49.772Z,0.90
2016-08-21T02:58:50.286Z,0.80
2016-08-21T02:59:50.797Z,1.10
2016-08-21T03:00:51.311Z,1.10
2016-08-21T03:01:51.970Z,1.70
2016-08-21T03:02:52.347Z,1.60
2016-08-21T03:03:52.856Z,1.60
2016-08-21T03:04:53.513Z,0.80
2016-08-21T03:05:54.019Z,0.50
2016-08-21T03:06:54.537Z,0.70
2016-08-21T03:07:54.900Z,0.70
2016-08-21T03:08:55.409Z,0.20
2016-08-21T03:09:55.923Z,2.30
2016-08-21T03:10:56.433Z,2.20
2016-08-21T03:11:56.947Z,1.80
2016-08-21T03:12:57.460Z,1.80
2016-08-21T03:13:57.977Z,1.80
2016-08-21T03:14:58.486Z,1.80
2016-08-21T03:15:59.016Z,1.80
2016-08-21T03:16:59.513Z,2.50
2016-08-21T03:18:00.042Z,1.60
2016-08-21T03:19:00.542Z,2.20
2016-08-21T03:20:01.061Z,2.10
2016-08-21T03:21:01.570Z,1.30
2016-08-21T03:22:02.080Z,2.40
2016-08-21T03:23:02.608Z,2.80
2016-08-21T03:24:03.102Z,3.20
2016-08-21T03:25:03.619Z,3.20
2016-08-21T03:26:04.154Z,2.20
2016-08-21T03:27:04.651Z,2.60
2016-08-21T03:28:05.162Z,1.60
2016-08-21T03:29:05.677Z,1.20
2016-08-21T03:30:06.189Z,0.90
2016-08-21T03:31:06.707Z,0.70
2016-08-21T03:32:07.212Z,1.20
2016-08-21T03:33:07.727Z,2.00
2016-08-21T03:34:08.242Z,1.20
2016-08-21T03:35:08.752Z,1.70
2016-08-21T03:36:09.289Z,1.60
2016-08-21T03:37:09.776Z,1.20
2016-08-21T03:38:10.287Z,1.20
2016-08-21T03:39:10.802Z,1.20
2016-08-21T03:40:11.317Z,1.50
2016-08-21T03:41:11.831Z,1.50
2016-08-21T03:42:12.345Z,1.70
2016-08-21T03:43:12.854Z,1.50
2016-08-21T03:44:13.368Z,1.70
2016-08-21T03:45:13.881Z,1.80
2016-08-21T03:46:14.544Z,2.00
2016-08-21T03:47:14.933Z,1.20
2016-08-21T03:48:15.420Z,1.50
2016-08-21T03:49:15.934Z,1.20
2016-08-21T03:50:16.444Z,0.80
2016-08-21T03:51:16.969Z,1.00
2016-08-21T03:52:17.469Z,1.10
2016-08-21T03:53:17.984Z,1.70
2016-08-21T03:54:18.497Z,1.40
2016-08-21T03:55:19.011Z,1.20
2016-08-21T03:56:19.536Z,0.90
2016-08-21T03:57:20.034Z,1.90
2016-08-21T03:58:20.552Z,0.90
2016-08-21T03:59:21.064Z,1.70
2016-08-21T04:00:21.579Z,1.80
2016-08-21T04:01:22.090Z,2.40
2016-08-21T04:02:22.609Z,1.50
2016-08-21T04:03:23.126Z,1.50
2016-08-21T04:04:23.669Z,1.90
2016-08-21T04:05:24.155Z,1.10
2016-08-21T04:06:24.668Z,1.50
2016-08-21T04:07:25.200Z,1.20
2016-08-21T04:08:25.692Z,0.80
2016-08-21T04:09:26.209Z,0.70
2016-08-21T04:10:26.736Z,0.70
2016-08-21T04:11:27.234Z,1.30
2016-08-21T04:12:27.751Z,2.00
2016-08-21T04:13:28.287Z,2.20
2016-08-21T04:14:28.799Z,2.40
2016-08-21T04:15:29.287Z,1.70
2016-08-21T04:16:29.802Z,1.70
2016-08-21T04:17:30.318Z,0.90
2016-08-21T04:18:30.830Z,2.20
2016-08-21T04:19:31.344Z,1.90
2016-08-21T04:20:31.859Z,1.20
2016-08-21T04:21:32.372Z,1.30
2016-08-21T04:22:32.883Z,1.30
2016-08-21T04:23:33.398Z,1.90
2016-08-21T04:24:33.911Z,2.00
2016-08-21T04:25:34.575Z,1.50
2016-08-21T04:26:34.965Z,2.00
2016-08-21T04:27:35.465Z,1.30
2016-08-21T04:28:35.965Z,2.00
2016-08-21T04:29:36.484Z,1.80
2016-08-21T04:30:36.987Z,1.30
2016-08-21T04:31:37.502Z,0.40
2016-08-21T04:32:38.019Z,0.60
2016-08-21T04:33:38.523Z,0.40
2016-08-21T04:34:39.041Z,0.20
2016-08-21T04:35:39.553Z,0.70
2016-08-21T04:36:40.064Z,0.40
2016-08-21T04:37:40.612Z,0.80
2016-08-21T04:38:41.098Z,0.90
2016-08-21T04:39:41.616Z,0.40
2016-08-21T04:40:42.129Z,1.50
2016-08-21T04:41:42.641Z,1.00
2016-08-21T04:42:43.165Z,0.30
2016-08-21T04:43:43.675Z,0.40
2016-08-21T04:44:44.186Z,1.00
2016-08-21T04:45:44.852Z,1.50
2016-08-21T04:46:45.215Z,1.80
2016-08-21T04:47:45.725Z,1.20
2016-08-21T04:48:46.250Z,1.10
2016-08-21T04:49:46.752Z,1.70
2016-08-21T04:50:47.271Z,1.20
2016-08-21T04:51:47.795Z,1.00
2016-08-21T04:52:48.296Z,1.30
2016-08-21T04:53:48.811Z,1.80
2016-08-21T04:54:49.327Z,1.50
2016-08-21T04:55:49.840Z,1.80
2016-08-21T04:56:50.351Z,1.20
2016-08-21T04:57:50.864Z,1.30
2016-08-21T04:58:51.374Z,1.80
2016-08-21T04:59:51.932Z,1.30
2016-08-21T05:00:52.404Z,0.30
2016-08-21T05:01:52.913Z,0.60
2016-08-21T05:02:53.429Z,0.50
2016-08-21T05:03:53.961Z,1.10
2016-08-21T05:04:54.461Z,0.80
2016-08-21T05:05:55.125Z,0.50
2016-08-21T05:06:55.490Z,1.60
2016-08-21T05:07:56.007Z,0.70
2016-08-21T05:08:56.513Z,0.40
2016-08-21T05:09:57.024Z,0.60
2016-08-21T05:10:57.534Z,0.30
2016-08-21T05:11:58.049Z,0.50
2016-08-21T05:12:58.559Z,0.40
2016-08-21T05:13:59.226Z,0.40
2016-08-21T05:14:59.597Z,0.40
2016-08-21T05:16:00.110Z,0.40
2016-08-21T05:17:00.634Z,0.70
2016-08-21T05:18:01.162Z,1.00
2016-08-21T05:19:01.659Z,1.00
2016-08-21T05:20:02.168Z,0.40
2016-08-21T05:21:02.685Z,0.20
2016-08-21T05:22:03.195Z,0.70
2016-08-21T05:23:03.707Z,0.70
2016-08-21T05:24:04.220Z,0.40
2016-08-21T05:25:04.728Z,0.90
2016-08-21T05:26:05.240Z,0.80
2016-08-21T05:27:05.752Z,0.80
2016-08-21T05:28:06.285Z,0.30
2016-08-21T05:29:06.772Z,0.30
2016-08-21T05:30:07.288Z,1.10
2016-08-21T05:31:07.796Z,1.40
2016-08-21T05:32:08.310Z,1.10
2016-08-21T05:33:08.825Z,0.80
2016-08-21T05:34:09.334Z,0.50
2016-08-21T05:35:09.849Z,0.40
2016-08-21T05:36:10.360Z,0.30
2016-08-21T05:37:10.904Z,0.20
2016-08-21T05:38:11.389Z,0.30
2016-08-21T05:39:11.902Z,0.40
2016-08-21T05:40:12.414Z,0.30
2016-08-21T05:41:12.930Z,0.00
2016-08-21T05:42:13.444Z,0.00
2016-08-21T05:43:13.954Z,0.00
2016-08-21T05:44:14.464Z,0.10
2016-08-21T05:45:14.988Z,0.00
2016-08-21T05:46:15.493Z,0.00
2016-08-21T05:47:16.008Z,0.00
2016-08-21T05:48:16.666Z,0.00
2016-08-21T05:49:17.031Z,0.10
2016-08-21T05:50:17.547Z,0.00
2016-08-21T05:51:18.071Z,0.40
2016-08-21T05:52:18.574Z,0.20
2016-08-21T05:53:19.246Z,0.10
2016-08-21T05:54:19.612Z,0.00
2016-08-21T05:55:20.128Z,0.70
2016-08-21T05:56:20.657Z,0.80
2016-08-21T05:57:21.151Z,0.60
2016-08-21T05:58:21.817Z,0.30
2016-08-21T05:59:22.184Z,0.70
2016-08-21T06:00:22.700Z,0.10
2016-08-21T06:01:23.209Z,0.10
2016-08-21T06:02:23.873Z,0.20
2016-08-21T06:03:24.237Z,0.50
2016-08-21T06:04:24.784Z,0.50
2016-08-21T06:05:25.268Z,0.10
2016-08-21T06:06:25.778Z,1.00
2016-08-21T06:07:26.293Z,1.00
2016-08-21T06:08:26.808Z,0.30
2016-08-21T06:09:27.318Z,0.50
2016-08-21T06:10:27.828Z,0.20
2016-08-21T06:11:28.352Z,0.40
2016-08-21T06:12:28.872Z,0.10
2016-08-21T06:13:29.373Z,0.20
2016-08-21T06:14:29.887Z,0.00
2016-08-21T06:15:30.397Z,0.00
2016-08-21T06:16:30.913Z,0.00
2016-08-21T06:17:31.426Z,0.00
2016-08-21T06:18:31.936Z,0.60
2016-08-21T06:19:32.448Z,1.10
2016-08-21T06:20:33.112Z,0.40
2016-08-21T06:21:33.649Z,1.40
2016-08-21T06:22:34.012Z,1.00
2016-08-21T06:23:34.503Z,0.30
2016-08-21T06:24:35.023Z,0.00
2016-08-21T06:25:35.552Z,0.00
2016-08-21T06:26:36.049Z,0.00
2016-08-21T06:27:36.567Z,0.00
2016-08-21T06:28:37.085Z,0.30
2016-08-21T06:29:37.623Z,0.00
2016-08-21T06:30:38.119Z,0.00
2016-08-21T06:31:38.636Z,0.00
2016-08-21T06:32:39.146Z,0.00
2016-08-21T06:33:39.815Z,0.40
2016-08-21T06:34:40.178Z,0.60
2016-08-21T06:35:40.713Z,0.60
2016-08-21T06:36:41.204Z,0.30
2016-08-21T06:37:41.739Z,0.70
2016-08-21T06:38:42.222Z,1.40
2016-08-21T06:39:42.739Z,1.20
2016-08-21T06:40:43.248Z,2.20
2016-08-21T06:41:43.811Z,2.00
2016-08-21T06:42:44.296Z,1.10
2016-08-21T06:43:44.797Z,0.60
2016-08-21T06:44:45.303Z,0.60
2016-08-21T06:45:45.822Z,0.20
2016-08-21T06:46:46.333Z,0.70
2016-08-21T06:47:46.854Z,0.70
2016-08-21T06:48:47.363Z,0.10
2016-08-21T06:49:47.875Z,0.30
2016-08-21T06:50:48.388Z,0.20
2016-08-21T06:51:48.925Z,0.30
2016-08-21T06:52:49.412Z,0.00
2016-08-21T06:53:49.927Z,0.00
2016-08-21T06:54:50.441Z,0.00
2016-08-21T06:55:50.950Z,0.00
2016-08-21T06:56:51.465Z,0.00
2016-08-21T06:57:51.974Z,0.00
2016-08-21T06:58:52.485Z,0.00
2016-08-21T06:59:52.999Z,1.30
2016-08-21T07:00:53.662Z,0.70
2016-08-21T07:01:54.022Z,0.40
2016-08-21T07:02:54.540Z,0.20
2016-08-21T07:03:55.061Z,0.00
2016-08-21T07:04:55.725Z,0.10
2016-08-21T07:05:56.094Z,0.20
2016-08-21T07:06:56.605Z,0.10
2016-08-21T07:07:57.122Z,1.60
2016-08-21T07:08:57.630Z,2.10
2016-08-21T07:09:58.147Z,1.90
2016-08-21T07:10:58.668Z,1.40
2016-08-21T07:11:59.171Z,0.50
2016-08-21T07:12:59.681Z,1.70
2016-08-21T07:14:00.220Z,1.10
2016-08-21T07:15:00.707Z,1.80
2016-08-21T07:16:01.219Z,1.80
2016-08-21T07:17:01.732Z,1.00
2016-08-21T07:18:02.249Z,1.60
2016-08-21T07:19:02.763Z,1.40
2016-08-21T07:20:03.276Z,2.30
2016-08-21T07:21:03.789Z,1.00
2016-08-21T07:22:04.466Z,1.90
2016-08-21T07:23:04.813Z,1.40
2016-08-21T07:24:05.353Z,1.00
2016-08-21T07:25:05.847Z,1.00
2016-08-21T07:26:06.354Z,1.10
2016-08-21T07:27:06.871Z,0.80
2016-08-21T07:28:07.382Z,1.10
2016-08-21T07:29:07.894Z,0.90
2016-08-21T07:30:08.413Z,0.80
2016-08-21T07:31:08.923Z,0.90
2016-08-21T07:32:09.583Z,1.20
2016-08-21T07:33:10.244Z,2.30
2016-08-21T07:34:10.484Z,1.60
2016-08-21T07:35:10.974Z,1.60
2016-08-21T07:36:11.483Z,2.30
2016-08-21T07:37:11.992Z,1.10
2016-08-21T07:38:12.510Z,0.50
2016-08-21T07:39:13.020Z,1.00
2016-08-21T07:40:13.536Z,0.50
2016-08-21T07:41:14.054Z,0.70
2016-08-21T07:42:14.588Z,2.00
2016-08-21T07:43:15.084Z,2.00
2016-08-21T07:44:15.632Z,1.40
2016-08-21T07:45:16.269Z,1.00
2016-08-21T07:46:16.654Z,0.80
2016-08-21T07:47:17.164Z,0.40
2016-08-21T07:48:17.658Z,0.90
2016-08-21T07:49:19.367Z,0.60
2016-08-21T07:50:18.692Z,0.70
2016-08-21T07:51:19.169Z,0.90
2016-08-21T07:52:19.690Z,1.50
2016-08-21T07:53:20.334Z,0.60
2016-08-21T07:54:20.689Z,0.90
2016-08-21T07:55:21.223Z,0.20
2016-08-21T07:56:21.875Z,0.20
2016-08-21T07:57:22.370Z,0.50
2016-08-21T07:58:22.847Z,0.40
2016-08-21T07:59:23.510Z,1.10
2016-08-21T08:00:23.733Z,1.40
2016-08-21T08:01:24.532Z,1.50
2016-08-21T08:02:24.868Z,0.90
2016-08-21T08:03:25.207Z,2.30
2016-08-21T08:04:25.887Z,1.40
2016-08-21T08:05:26.511Z,1.60
2016-08-21T08:06:26.733Z,1.40
2016-08-21T08:07:27.500Z,0.70
2016-08-21T08:08:28.001Z,2.00
2016-08-21T08:09:28.348Z,1.60
2016-08-21T08:10:28.727Z,0.40
2016-08-21T08:11:29.346Z,1.00
2016-08-21T08:12:29.844Z,1.10
2016-08-21T08:13:30.373Z,0.70
2016-08-21T08:14:30.742Z,0.60
2016-08-21T08:15:31.365Z,0.80
2016-08-21T08:16:31.847Z,0.40
2016-08-21T08:17:32.230Z,0.40
2016-08-21T08:18:32.731Z,0.50
2016-08-21T08:19:33.225Z,0.50
2016-08-21T08:20:33.706Z,0.40
2016-08-21T08:21:34.216Z,0.30
2016-08-21T08:22:34.741Z,0.40
2016-08-21T08:23:35.383Z,0.00
2016-08-21T08:24:36.006Z,0.00
2016-08-21T08:25:36.368Z,1.10
2016-08-21T08:26:36.854Z,1.00
2016-08-21T08:27:37.205Z,0.40
2016-08-21T08:28:38.006Z,0.40
2016-08-21T08:29:38.375Z,0.70
2016-08-21T08:30:38.730Z,1.00
2016-08-21T08:31:39.384Z,1.00
2016-08-21T08:32:39.866Z,1.10
2016-08-21T08:33:40.497Z,0.70
2016-08-21T08:34:40.998Z,0.00
2016-08-21T08:35:41.379Z,0.40
2016-08-21T08:36:41.845Z,0.20
2016-08-21T08:37:42.381Z,1.40
2016-08-21T08:38:42.702Z,1.40
2016-08-21T08:39:43.195Z,0.30
2016-08-21T08:40:43.737Z,0.30
2016-08-21T08:41:44.216Z,0.40
2016-08-21T08:42:44.697Z,0.80
2016-08-21T08:43:45.372Z,0.80
2016-08-21T08:44:45.837Z,1.30
2016-08-21T08:45:46.337Z,1.00
2016-08-21T08:46:46.691Z,0.70
2016-08-21T08:47:47.484Z,0.70
2016-08-21T08:48:47.987Z,2.20
2016-08-21T08:49:48.352Z,1.40
2016-08-21T08:50:48.857Z,0.40
2016-08-21T08:51:49.339Z,0.50
2016-08-21T08:52:49.841Z,1.60
2016-08-21T08:53:50.346Z,1.40
2016-08-21T08:54:50.891Z,0.80
2016-08-21T08:55:52.253Z,0.30
2016-08-21T08:56:51.880Z,0.90
2016-08-21T08:57:52.355Z,2.60
2016-08-21T08:58:52.742Z,1.00
2016-08-21T08:59:53.505Z,2.10
2016-08-21T09:00:53.707Z,2.70
2016-08-21T09:01:54.388Z,1.20
2016-08-21T09:02:54.708Z,1.20
2016-08-21T09:03:55.222Z,1.40
2016-08-21T09:04:55.719Z,1.10
2016-08-21T09:05:56.522Z,0.60
2016-08-21T09:06:56.854Z,0.30
2016-08-21T09:07:57.358Z,0.40
2016-08-21T09:08:57.856Z,0.90
2016-08-21T09:09:58.356Z,1.90
2016-08-21T09:10:58.853Z,1.30
2016-08-21T09:11:59.389Z,0.50
2016-08-21T09:12:59.716Z,0.30
2016-08-21T09:14:00.502Z,0.70
2016-08-21T09:15:00.718Z,0.70
2016-08-21T09:16:01.358Z,0.70
2016-08-21T09:17:02.006Z,1.90
2016-08-21T09:18:02.227Z,0.70
2016-08-21T09:19:02.902Z,1.20
2016-08-21T09:20:03.505Z,1.30
2016-08-21T09:21:03.730Z,2.30
2016-08-21T09:22:04.357Z,2.60
2016-08-21T09:23:04.708Z,2.80
2016-08-21T09:24:05.212Z,1.20
2016-08-21T09:25:05.912Z,1.40
2016-08-21T09:26:06.218Z,1.40
2016-08-21T09:27:06.716Z,1.00
2016-08-21T09:28:07.394Z,0.70
2016-08-21T09:29:07.861Z,1.10
2016-08-21T09:30:08.239Z,2.10
2016-08-21T09:31:08.733Z,1.70
2016-08-21T09:32:09.267Z,1.20
2016-08-21T09:33:09.755Z,1.50
2016-08-21T09:34:10.268Z,1.40
2016-08-21T09:35:10.918Z,1.50
2016-08-21T09:36:11.270Z,0.40
2016-08-21T09:37:11.879Z,0.20
2016-08-21T09:38:12.526Z,0.30
2016-08-21T09:39:12.882Z,0.40
2016-08-21T09:40:13.244Z,0.30
2016-08-21T09:41:13.909Z,0.00
2016-08-21T09:42:14.524Z,0.00
2016-08-21T09:43:15.027Z,0.00
2016-08-21T09:44:15.399Z,0.20
2016-08-21T09:45:16.027Z,0.00
2016-08-21T09:46:16.377Z,0.40
2016-08-21T09:47:16.885Z,0.30
2016-08-21T09:48:17.392Z,0.00
2016-08-21T09:49:17.734Z,0.80
2016-08-21T09:50:18.228Z,0.20
2016-08-21T09:51:18.740Z,0.30
2016-08-21T09:52:19.264Z,0.10
2016-08-21T09:53:19.872Z,0.10
2016-08-21T09:54:20.374Z,0.50
2016-08-21T09:55:20.751Z,1.20
2016-08-21T09:56:21.385Z,1.60
2016-08-21T09:57:21.737Z,1.60
2016-08-21T09:58:22.399Z,1.10
2016-08-21T09:59:22.753Z,0.50
2016-08-21T10:00:23.244Z,0.40
2016-08-21T10:01:23.749Z,0.30
2016-08-21T10:02:24.372Z,0.50
2016-08-21T10:03:24.908Z,0.50
2016-08-21T10:04:25.370Z,0.40
2016-08-21T10:05:25.886Z,1.00
2016-08-21T10:06:26.520Z,0.10
2016-08-21T10:07:26.730Z,0.10
2016-08-21T10:08:27.229Z,0.50
2016-08-21T10:09:27.877Z,0.10
2016-08-21T10:10:28.252Z,0.10
2016-08-21T10:11:28.878Z,0.20
2016-08-21T10:12:29.523Z,0.20
2016-08-21T10:13:29.747Z,0.00
2016-08-21T10:14:30.523Z,0.40
2016-08-21T10:15:31.023Z,0.50
2016-08-21T10:16:31.220Z,0.60
2016-08-21T10:17:31.725Z,0.60
2016-08-21T10:18:32.378Z,1.00
2016-08-21T10:19:32.752Z,1.00
2016-08-21T10:20:33.252Z,0.90
2016-08-21T10:21:33.901Z,1.10
2016-08-21T10:22:34.226Z,0.70
2016-08-21T10:23:34.876Z,0.70
2016-08-21T10:24:35.209Z,0.80
2016-08-21T10:25:35.886Z,0.40
2016-08-21T10:26:36.358Z,0.40
2016-08-21T10:27:36.853Z,0.30
2016-08-21T10:28:37.208Z,0.20
2016-08-21T10:29:37.722Z,0.10
2016-08-21T10:30:38.238Z,0.10
2016-08-21T10:31:38.766Z,0.80
2016-08-21T10:32:39.279Z,0.00
2016-08-21T10:33:39.782Z,0.00
2016-08-21T10:34:40.287Z,0.30
2016-08-21T10:35:40.803Z,0.00
2016-08-21T10:36:41.466Z,0.60
2016-08-21T10:37:41.840Z,0.30
2016-08-21T10:38:42.339Z,0.30
2016-08-21T10:39:42.853Z,0.10
2016-08-21T10:40:43.514Z,0.60
2016-08-21T10:41:43.875Z,0.10
2016-08-21T10:42:44.399Z,0.40
2016-08-21T10:43:44.910Z,0.90
2016-08-21T10:44:45.434Z,1.30
2016-08-21T10:45:45.946Z,0.70
2016-08-21T10:46:46.489Z,0.70
2016-08-21T10:47:46.997Z,0.90
2016-08-21T10:48:47.488Z,1.10
2016-08-21T10:49:48.147Z,0.70
2016-08-21T10:50:48.514Z,0.70
2016-08-21T10:51:49.027Z,0.50
2016-08-21T10:52:49.535Z,1.50
2016-08-21T10:53:50.059Z,1.00
2016-08-21T10:54:50.562Z,0.30
2016-08-21T10:55:51.074Z,0.00
2016-08-21T10:56:51.587Z,0.00
2016-08-21T10:57:52.103Z,0.80
2016-08-21T10:58:52.616Z,1.10
2016-08-21T10:59:53.127Z,0.10
2016-08-21T11:00:53.640Z,0.00
2016-08-21T11:01:54.157Z,0.00
2016-08-21T11:02:54.665Z,0.00
2016-08-21T11:03:55.179Z,0.00
2016-08-21T11:04:55.692Z,0.00
2016-08-21T11:05:56.209Z,0.00
2016-08-21T11:06:56.718Z,0.00
2016-08-21T11:07:57.236Z,0.00
2016-08-21T11:08:57.751Z,0.00
2016-08-21T11:09:58.263Z,0.00
2016-08-21T11:10:58.774Z,0.00
2016-08-21T11:11:59.291Z,1.40
2016-08-21T11:12:59.800Z,1.00
2016-08-21T11:14:00.317Z,1.00
2016-08-21T11:15:00.829Z,1.90
2016-08-21T11:16:01.495Z,1.90
2016-08-21T11:17:01.859Z,0.50
2016-08-21T11:18:02.371Z,0.30
2016-08-21T11:19:02.886Z,0.80
2016-08-21T11:20:03.405Z,1.20
2016-08-21T11:21:03.920Z,0.30
2016-08-21T11:22:04.438Z,0.00
2016-08-21T11:23:04.953Z,0.00
2016-08-21T11:24:05.468Z,0.70
2016-08-21T11:25:05.983Z,0.80
2016-08-21T11:26:06.494Z,2.00
2016-08-21T11:27:07.031Z,1.10
2016-08-21T11:28:07.665Z,1.20
2016-08-21T11:29:08.179Z,0.20
2016-08-21T11:30:08.540Z,0.00
2016-08-21T11:31:09.201Z,0.00
2016-08-21T11:32:09.563Z,0.50
2016-08-21T11:33:10.078Z,0.10
2016-08-21T11:34:10.586Z,0.00
2016-08-21T11:35:11.102Z,0.20
2016-08-21T11:36:11.759Z,1.60
2016-08-21T11:37:12.136Z,2.10
2016-08-21T11:38:12.637Z,1.30
2016-08-21T11:39:13.148Z,1.00
2016-08-21T11:40:13.661Z,1.10
2016-08-21T11:41:14.177Z,0.80
2016-08-21T11:42:14.691Z,0.50
2016-08-21T11:43:15.199Z,0.80
2016-08-21T11:44:15.718Z,1.00
2016-08-21T11:45:16.229Z,0.60
2016-08-21T11:46:16.892Z,0.60
2016-08-21T11:47:17.276Z,0.40
2016-08-21T11:48:17.770Z,1.70
2016-08-21T11:49:18.288Z,1.20
2016-08-21T11:50:18.803Z,1.40
2016-08-21T11:51:19.315Z,1.80
2016-08-21T11:52:19.834Z,0.80
2016-08-21T11:53:20.342Z,2.00
2016-08-21T11:54:20.856Z,1.80
2016-08-21T11:55:21.372Z,0.90
2016-08-21T11:56:21.892Z,0.30
2016-08-21T11:57:22.437Z,0.60
2016-08-21T11:58:22.924Z,1.20
2016-08-21T11:59:23.438Z,1.00
2016-08-21T12:00:23.950Z,1.10
2016-08-21T12:01:24.464Z,1.00
2016-08-21T12:02:24.974Z,0.40
2016-08-21T12:03:25.491Z,1.40
2016-08-21T12:04:26.003Z,0.60
2016-08-21T12:05:26.514Z,0.40
2016-08-21T12:06:27.024Z,0.40
2016-08-21T12:07:27.538Z,0.30
2016-08-21T12:08:28.198Z,0.60
2016-08-21T12:09:28.558Z,1.60
2016-08-21T12:10:29.076Z,1.10
2016-08-21T12:11:29.586Z,0.10
2016-08-21T12:12:30.102Z,0.80
2016-08-21T12:13:30.614Z,3.10
2016-08-21T12:14:31.125Z,3.10
2016-08-21T12:15:31.635Z,1.80
2016-08-21T12:16:32.148Z,2.00
2016-08-21T12:17:32.671Z,2.20
2016-08-21T12:18:33.326Z,1.40
2016-08-21T12:19:33.691Z,1.00
2016-08-21T12:20:34.202Z,0.20
2016-08-21T12:21:34.717Z,0.00
2016-08-21T12:22:35.228Z,0.50
2016-08-21T12:23:35.741Z,0.80
2016-08-21T12:24:36.278Z,1.00
2016-08-21T12:25:36.770Z,1.30
2016-08-21T12:26:37.286Z,3.10
2016-08-21T12:27:37.837Z,2.90
2016-08-21T12:28:38.312Z,1.40
2016-08-21T12:29:38.827Z,1.10
2016-08-21T12:30:41.138Z,1.70
2016-08-21T12:31:39.850Z,3.10
2016-08-21T12:32:40.382Z,2.40
2016-08-21T12:33:40.886Z,4.30
2016-08-21T12:34:41.401Z,1.70
2016-08-21T12:35:41.917Z,1.30
2016-08-21T12:36:42.429Z,1.10
2016-08-21T12:37:42.970Z,1.70
2016-08-21T12:38:43.603Z,2.30
2016-08-21T12:39:43.964Z,3.00
2016-08-21T12:40:44.478Z,2.50
2016-08-21T12:41:44.995Z,1.80
2016-08-21T12:42:45.507Z,2.60
2016-08-21T12:43:46.049Z,3.00
2016-08-21T12:44:46.537Z,2.10
2016-08-21T12:45:47.050Z,2.10
2016-08-21T12:46:47.563Z,1.80
2016-08-21T12:47:48.116Z,1.90
2016-08-21T12:48:48.614Z,2.20
2016-08-21T12:49:49.100Z,2.20
2016-08-21T12:50:49.612Z,1.90
2016-08-21T12:51:50.125Z,2.00
2016-08-21T12:52:50.637Z,1.90
2016-08-21T12:53:51.150Z,1.40
2016-08-21T12:54:51.669Z,1.80
2016-08-21T12:55:52.182Z,0.80
2016-08-21T12:56:52.696Z,1.30
2016-08-21T12:57:53.227Z,0.90
2016-08-21T12:58:53.721Z,0.60
2016-08-21T12:59:54.236Z,2.60
2016-08-21T13:00:54.746Z,2.40
2016-08-21T13:01:55.266Z,2.20
2016-08-21T13:02:55.793Z,1.80
2016-08-21T13:03:56.293Z,1.70
2016-08-21T13:04:56.801Z,1.00
2016-08-21T13:05:57.312Z,1.60
2016-08-21T13:06:57.828Z,1.20
2016-08-21T13:07:58.349Z,1.80
2016-08-21T13:08:58.856Z,1.80
2016-08-21T13:09:59.380Z,1.20
2016-08-21T13:10:59.892Z,2.30
2016-08-21T13:12:00.405Z,1.60
2016-08-21T13:13:00.924Z,1.90
2016-08-21T13:14:01.434Z,2.10
2016-08-21T13:15:01.954Z,2.10
2016-08-21T13:16:02.461Z,2.50
2016-08-21T13:17:02.972Z,2.10
2016-08-21T13:18:03.518Z,2.10
2016-08-21T13:19:03.998Z,1.60
2016-08-21T13:20:04.504Z,1.80
2016-08-21T13:21:05.019Z,1.10
2016-08-21T13:22:05.534Z,2.90
2016-08-21T13:23:06.085Z,1.50
2016-08-21T13:24:06.556Z,3.70
2016-08-21T13:25:07.068Z,3.60